createdAt,value
2018-03-16T00:00:40.772Z,2.23
2018-03-16T00:03:06.891Z,2.60
2018-03-16T00:05:33.035Z,3.57
2018-03-16T00:07:59.168Z,3.30
2018-03-16T00:10:25.317Z,3.07
2018-03-16T00:12:52.161Z,3.17
2018-03-16T00:15:19.048Z,3.77
2018-03-16T00:17:45.182Z,4.50
2018-03-16T00:20:11.378Z,2.40
2018-03-16T00:22:38.270Z,3.70
2018-03-16T00:25:04.397Z,2.50
2018-03-16T00:27:30.543Z,2.37
2018-03-16T00:29:56.680Z,4.10
2018-03-16T00:32:22.830Z,1.80
2018-03-16T00:34:48.967Z,2.23
2018-03-16T00:37:15.089Z,1.97
2018-03-16T00:39:41.234Z,2.37
2018-03-16T00:42:07.388Z,2.57
2018-03-16T00:44:34.268Z,2.33
2018-03-16T00:47:00.430Z,1.53
2018-03-16T00:49:26.542Z,2.27
2018-03-16T00:51:52.666Z,1.63
2018-03-16T00:54:18.807Z,2.20
2018-03-16T00:56:51.877Z,1.63
2018-03-16T00:59:18.019Z,4.00
2018-03-16T01:01:44.184Z,1.10
2018-03-16T01:04:10.323Z,0.97
2018-03-16T01:06:37.180Z,1.27
2018-03-16T01:09:04.074Z,1.03
2018-03-16T01:11:30.186Z,2.60
2018-03-16T01:13:56.328Z,1.00
2018-03-16T01:16:22.467Z,1.63
2018-03-16T01:18:48.635Z,1.63
2018-03-16T01:21:16.309Z,0.90
2018-03-16T01:23:43.173Z,0.87
2018-03-16T01:26:10.044Z,2.70
2018-03-16T01:28:36.162Z,2.07
2018-03-16T01:31:03.092Z,0.93
2018-03-16T01:33:29.204Z,1.23
2018-03-16T01:35:55.322Z,1.33
2018-03-16T01:38:21.483Z,1.00
2018-03-16T01:40:47.603Z,1.37
2018-03-16T01:43:13.710Z,2.00
2018-03-16T01:45:39.855Z,1.70
2018-03-16T01:48:05.990Z,2.30
2018-03-16T01:50:32.158Z,0.90
2018-03-16T01:53:04.003Z,2.03
2018-03-16T01:55:30.903Z,1.00
2018-03-16T01:57:57.030Z,1.13
2018-03-16T02:00:23.164Z,1.30
2018-03-16T02:02:49.335Z,0.67
2018-03-16T02:05:15.488Z,0.60
2018-03-16T02:07:42.349Z,1.23
2018-03-16T02:10:09.238Z,1.07
2018-03-16T02:12:35.363Z,1.77
2018-03-16T02:15:01.543Z,1.40
2018-03-16T02:17:28.398Z,0.70
2018-03-16T02:19:55.287Z,0.70
2018-03-16T02:22:21.433Z,0.53
2018-03-16T02:24:47.610Z,1.10
2018-03-16T02:27:14.466Z,0.87
2018-03-16T02:29:41.372Z,0.50
2018-03-16T02:32:07.511Z,1.10
2018-03-16T02:34:33.625Z,0.40
2018-03-16T02:36:59.806Z,1.37
2018-03-16T02:39:26.702Z,1.57
2018-03-16T02:41:52.818Z,0.50
2018-03-16T02:44:19.016Z,0.50
2018-03-16T02:46:45.147Z,0.83
2018-03-16T02:49:12.025Z,0.63
2018-03-16T02:51:38.157Z,0.53
2018-03-16T02:54:04.334Z,1.10
2018-03-16T02:56:30.491Z,2.27
2018-03-16T02:58:56.623Z,0.43
2018-03-16T03:01:23.547Z,0.53
2018-03-16T03:03:49.658Z,0.63
2018-03-16T03:06:15.792Z,0.50
2018-03-16T03:08:41.970Z,2.67
2018-03-16T03:11:08.844Z,0.60
2018-03-16T03:13:34.954Z,0.97
2018-03-16T03:16:01.850Z,0.60
2018-03-16T03:18:27.967Z,0.33
2018-03-16T03:20:54.120Z,0.70
2018-03-16T03:23:20.257Z,0.40
2018-03-16T03:25:46.387Z,0.80
2018-03-16T03:28:12.730Z,0.60
2018-03-16T03:30:38.843Z,0.50
2018-03-16T03:33:04.979Z,1.20
2018-03-16T03:35:31.121Z,1.57
2018-03-16T03:37:57.239Z,1.37
2018-03-16T03:40:23.374Z,0.83
2018-03-16T03:42:49.536Z,2.00
2018-03-16T03:45:16.400Z,0.37
2018-03-16T03:47:43.271Z,0.40
2018-03-16T03:50:09.434Z,0.60
2018-03-16T03:52:35.618Z,1.27
2018-03-16T03:55:02.483Z,0.60
2018-03-16T03:57:28.614Z,0.50
2018-03-16T03:59:54.767Z,0.37
2018-03-16T04:02:20.911Z,2.50
2018-03-16T04:04:47.030Z,0.40
2018-03-16T04:07:13.184Z,0.50
2018-03-16T04:09:39.359Z,0.30
2018-03-16T04:12:06.223Z,0.40
2018-03-16T04:14:32.352Z,0.50
2018-03-16T04:16:58.503Z,0.33
2018-03-16T04:19:24.621Z,1.07
2018-03-16T04:21:50.794Z,0.47
2018-03-16T04:24:16.970Z,0.60
2018-03-16T04:26:43.092Z,0.37
2018-03-16T04:29:09.955Z,1.60
2018-03-16T04:31:36.099Z,0.60
2018-03-16T04:34:02.220Z,1.30
2018-03-16T04:36:28.372Z,0.50
2018-03-16T04:38:54.492Z,0.93
2018-03-16T04:41:20.640Z,0.53
2018-03-16T04:43:46.778Z,0.93
2018-03-16T04:46:12.912Z,1.17
2018-03-16T04:48:39.061Z,0.77
2018-03-16T04:51:05.238Z,0.40
2018-03-16T04:53:31.366Z,0.93
2018-03-16T04:55:57.511Z,0.60
2018-03-16T04:58:23.750Z,0.70
2018-03-16T05:00:49.879Z,4.00
2018-03-16T05:03:16.048Z,1.43
2018-03-16T05:05:42.173Z,1.20
2018-03-16T05:08:08.338Z,2.23
2018-03-16T05:10:35.225Z,3.17
2018-03-16T05:13:01.356Z,1.37
2018-03-16T05:15:27.530Z,1.10
2018-03-16T05:17:53.657Z,0.93
2018-03-16T05:20:19.798Z,0.87
2018-03-16T05:22:45.967Z,8.20
2018-03-16T05:25:12.078Z,2.10
2018-03-16T05:27:38.929Z,3.87
2018-03-16T05:30:05.848Z,3.60
2018-03-16T05:32:31.970Z,5.80
2018-03-16T05:34:58.099Z,1.40
2018-03-16T05:37:24.250Z,2.23
2018-03-16T05:39:50.402Z,3.10
2018-03-16T05:42:17.250Z,2.57
2018-03-16T05:44:44.156Z,2.77
2018-03-16T05:47:10.295Z,2.47
2018-03-16T05:49:36.518Z,1.70
2018-03-16T05:52:02.652Z,1.50
2018-03-16T05:54:28.788Z,2.13
2018-03-16T05:56:54.926Z,2.17
2018-03-16T05:59:21.099Z,1.73
2018-03-16T06:01:47.966Z,2.37
2018-03-16T06:04:14.133Z,1.10
2018-03-16T06:06:40.280Z,1.23
2018-03-16T06:09:06.440Z,2.03
2018-03-16T06:11:33.356Z,0.90
2018-03-16T06:13:59.467Z,1.90
2018-03-16T06:16:25.596Z,0.70
2018-03-16T06:18:51.763Z,2.00
2018-03-16T06:21:17.886Z,0.80
2018-03-16T06:23:44.057Z,0.97
2018-03-16T06:26:10.995Z,0.93
2018-03-16T06:28:37.856Z,1.30
2018-03-16T06:31:03.988Z,1.13
2018-03-16T06:33:30.131Z,1.47
2018-03-16T06:35:56.232Z,1.43
2018-03-16T06:38:23.120Z,1.47
2018-03-16T06:40:49.236Z,1.27
2018-03-16T06:43:15.356Z,3.43
2018-03-16T06:45:41.516Z,1.97
2018-03-16T06:48:07.642Z,1.97
2018-03-16T06:50:34.023Z,1.80
2018-03-16T06:53:00.142Z,1.53
2018-03-16T06:55:26.257Z,2.60
2018-03-16T06:57:52.412Z,0.67
2018-03-16T07:00:18.588Z,3.37
2018-03-16T07:02:44.756Z,1.30
2018-03-16T07:05:10.890Z,1.13
2018-03-16T07:07:37.015Z,1.63
2018-03-16T07:10:03.165Z,1.17
2018-03-16T07:12:29.283Z,0.93
2018-03-16T07:14:55.439Z,1.00
2018-03-16T07:17:21.604Z,2.83
2018-03-16T07:19:48.464Z,0.60
2018-03-16T07:22:14.600Z,1.57
2018-03-16T07:24:40.769Z,1.87
2018-03-16T07:27:06.883Z,1.23
2018-03-16T07:29:33.047Z,1.23
2018-03-16T07:31:59.176Z,1.47
2018-03-16T07:34:25.286Z,0.73
2018-03-16T07:36:51.437Z,2.10
2018-03-16T07:39:17.566Z,2.77
2018-03-16T07:41:43.701Z,3.30
2018-03-16T07:44:09.839Z,1.13
2018-03-16T07:46:36.685Z,1.30
2018-03-16T07:49:02.807Z,1.27
2018-03-16T07:51:29.000Z,0.87
2018-03-16T07:53:55.155Z,1.53
2018-03-16T07:56:21.304Z,0.70
2018-03-16T07:58:47.419Z,1.03
2018-03-16T08:01:13.593Z,0.50
2018-03-16T08:03:40.443Z,2.40
2018-03-16T08:06:07.357Z,1.70
2018-03-16T08:08:33.508Z,2.00
2018-03-16T08:10:59.656Z,1.10
2018-03-16T08:13:26.560Z,7.33
2018-03-16T08:15:52.669Z,0.87
2018-03-16T08:18:18.844Z,0.90
2018-03-16T08:20:44.954Z,0.97
2018-03-16T08:23:11.169Z,1.90
2018-03-16T08:25:37.291Z,0.80
2018-03-16T08:28:03.442Z,2.60
2018-03-16T08:30:29.599Z,0.97
2018-03-16T08:32:55.787Z,1.53
2018-03-16T08:35:21.947Z,2.70
2018-03-16T08:37:48.068Z,0.97
2018-03-16T08:40:14.206Z,0.83
2018-03-16T08:42:40.322Z,0.60
2018-03-16T08:45:06.451Z,2.43
2018-03-16T08:47:32.602Z,0.90
2018-03-16T08:49:58.734Z,2.13
2018-03-16T08:52:24.847Z,1.20
2018-03-16T08:54:51.019Z,0.97
2018-03-16T08:57:17.156Z,0.90
2018-03-16T08:59:44.071Z,0.47
2018-03-16T09:02:10.184Z,0.80
2018-03-16T09:04:36.335Z,1.50
2018-03-16T09:07:02.483Z,0.87
2018-03-16T09:09:28.604Z,1.80
2018-03-16T09:11:54.750Z,1.77
2018-03-16T09:14:20.894Z,0.60
2018-03-16T09:16:47.075Z,1.33
2018-03-16T09:19:13.207Z,1.83
2018-03-16T09:21:39.336Z,1.67
2018-03-16T09:24:05.499Z,1.53
2018-03-16T09:26:31.630Z,0.63
2018-03-16T09:28:57.764Z,1.70
2018-03-16T09:31:23.912Z,1.63
2018-03-16T09:33:50.024Z,1.53
2018-03-16T09:36:16.175Z,1.00
2018-03-16T09:38:42.370Z,1.10
2018-03-16T09:41:08.492Z,0.70
2018-03-16T09:43:34.612Z,1.47
2018-03-16T09:46:00.791Z,1.47
2018-03-16T09:48:26.912Z,0.93
2018-03-16T09:50:53.043Z,0.60
2018-03-16T09:53:30.102Z,2.43
2018-03-16T09:55:56.272Z,0.90
2018-03-16T09:58:22.398Z,2.37
2018-03-16T10:00:48.634Z,0.50
2018-03-16T10:03:14.741Z,1.60
2018-03-16T10:05:40.892Z,1.47
2018-03-16T10:08:07.038Z,0.63
2018-03-16T10:10:34.670Z,0.93
2018-03-16T10:13:00.787Z,2.80
2018-03-16T10:15:26.961Z,1.60
2018-03-16T10:17:53.080Z,8.10
2018-03-16T10:20:19.198Z,2.83
2018-03-16T10:22:45.333Z,1.33
2018-03-16T10:25:11.495Z,4.17
2018-03-16T10:27:37.606Z,2.90
2018-03-16T10:30:03.824Z,2.27
2018-03-16T10:32:29.939Z,1.90
2018-03-16T10:34:56.075Z,4.10
2018-03-16T10:37:22.247Z,5.50
2018-03-16T10:39:48.358Z,4.77
2018-03-16T10:42:14.494Z,0.90
2018-03-16T10:44:40.626Z,4.53
2018-03-16T10:47:06.755Z,6.30
2018-03-16T10:49:32.892Z,3.27
2018-03-16T10:51:59.025Z,4.77
2018-03-16T10:54:25.189Z,3.10
2018-03-16T10:56:52.043Z,2.93
2018-03-16T10:59:18.911Z,2.13
2018-03-16T11:01:51.151Z,5.33
2018-03-16T11:04:17.306Z,22.10
2018-03-16T11:06:46.440Z,20.13
2018-03-16T11:09:12.635Z,45.93
2018-03-16T11:11:39.576Z,36.10
2018-03-16T11:14:06.484Z,21.90
2018-03-16T11:16:32.618Z,39.13
2018-03-16T11:18:58.733Z,20.70
2018-03-16T11:21:24.891Z,17.80
2018-03-16T11:23:51.039Z,18.13
2018-03-16T11:26:17.204Z,13.47
2018-03-16T11:28:43.402Z,15.13
2018-03-16T11:31:09.519Z,10.10
2018-03-16T11:33:35.634Z,13.60
2018-03-16T11:36:01.784Z,14.67
2018-03-16T11:38:27.912Z,15.50
2018-03-16T11:40:54.086Z,8.27
2018-03-16T11:43:20.212Z,10.47
2018-03-16T11:45:47.079Z,8.67
2018-03-16T11:48:13.218Z,8.63
2018-03-16T11:50:39.343Z,8.53
2018-03-16T11:53:05.496Z,8.63
2018-03-16T11:55:31.642Z,9.90
2018-03-16T11:57:57.804Z,10.57
2018-03-16T12:00:24.672Z,10.90
2018-03-16T12:02:50.821Z,7.00
2018-03-16T12:05:16.998Z,7.07
2018-03-16T12:07:43.871Z,9.73
2018-03-16T12:10:10.753Z,5.73
2018-03-16T12:12:36.904Z,8.20
2018-03-16T12:15:03.018Z,5.90
2018-03-16T12:17:29.211Z,7.10
2018-03-16T12:19:56.058Z,8.47
2018-03-16T12:22:22.939Z,4.83
2018-03-16T12:24:49.099Z,5.70
2018-03-16T12:27:15.247Z,6.63
2018-03-16T12:29:41.354Z,4.40
2018-03-16T12:32:07.530Z,3.40
2018-03-16T12:34:33.656Z,3.73
2018-03-16T12:36:59.771Z,5.00
2018-03-16T12:39:25.994Z,2.37
2018-03-16T12:41:52.115Z,3.83
2018-03-16T12:44:18.238Z,4.27
2018-03-16T12:46:44.370Z,2.67
2018-03-16T12:49:10.524Z,4.40
2018-03-16T12:51:42.155Z,3.13
2018-03-16T12:54:03.584Z,3.00
2018-03-16T12:56:29.697Z,2.80
2018-03-16T12:58:55.894Z,3.87
2018-03-16T13:01:22.214Z,4.33
2018-03-16T13:03:48.335Z,3.33
2018-03-16T13:06:14.448Z,2.80
2018-03-16T13:08:40.575Z,3.77
2018-03-16T13:11:06.722Z,2.63
2018-03-16T13:13:32.842Z,2.93
2018-03-16T13:15:58.996Z,4.13
2018-03-16T13:18:25.120Z,3.53
2018-03-16T13:20:51.275Z,6.00
2018-03-16T13:23:17.433Z,3.33
2018-03-16T13:25:43.526Z,3.27
2018-03-16T13:28:09.716Z,3.10
2018-03-16T13:30:35.846Z,4.93
2018-03-16T13:33:02.008Z,3.17
2018-03-16T13:35:28.168Z,4.93
2018-03-16T13:37:54.290Z,2.80
2018-03-16T13:40:20.421Z,3.00
2018-03-16T13:42:46.554Z,4.07
2018-03-16T13:45:14.219Z,2.50
2018-03-16T13:47:40.428Z,2.07
2018-03-16T13:50:06.570Z,2.10
2018-03-16T13:52:32.703Z,3.30
2018-03-16T13:54:58.850Z,2.37
2018-03-16T13:57:24.976Z,1.90
2018-03-16T13:59:51.098Z,2.30
2018-03-16T14:02:17.236Z,2.13
2018-03-16T14:04:43.359Z,2.30
2018-03-16T14:07:09.531Z,1.77
2018-03-16T14:09:36.431Z,4.07
2018-03-16T14:12:02.551Z,2.10
2018-03-16T14:14:28.711Z,2.83
2018-03-16T14:16:54.895Z,1.90
2018-03-16T14:19:21.054Z,1.60
2018-03-16T14:21:47.180Z,2.33
2018-03-16T14:24:13.336Z,2.10
2018-03-16T14:26:39.478Z,2.73
2018-03-16T14:29:05.632Z,1.73
2018-03-16T14:31:32.536Z,7.10
2018-03-16T14:33:58.679Z,4.70
2018-03-16T14:36:24.826Z,3.23
2018-03-16T14:38:51.035Z,3.70
2018-03-16T14:41:17.177Z,7.70
2018-03-16T14:43:43.282Z,3.60
2018-03-16T14:46:09.467Z,3.63
2018-03-16T14:48:36.376Z,1.83
2018-03-16T14:51:02.509Z,2.10
2018-03-16T14:53:28.660Z,1.93
2018-03-16T14:55:54.791Z,0.87
2018-03-16T14:58:20.947Z,2.43
2018-03-16T15:00:47.810Z,2.17
2018-03-16T15:03:13.976Z,2.43
2018-03-16T15:05:40.107Z,4.10
2018-03-16T15:08:06.232Z,5.10
2018-03-16T15:10:32.399Z,1.93
2018-03-16T15:12:58.528Z,1.73
2018-03-16T15:15:24.674Z,3.93
2018-03-16T15:17:50.803Z,2.27
2018-03-16T15:20:16.923Z,1.27
2018-03-16T15:22:43.064Z,1.27
2018-03-16T15:25:09.209Z,1.63
2018-03-16T15:27:36.098Z,2.00
2018-03-16T15:30:02.270Z,2.10
2018-03-16T15:32:28.392Z,8.30
2018-03-16T15:34:54.558Z,1.87
2018-03-16T15:37:21.436Z,3.03
2018-03-16T15:39:47.555Z,5.67
2018-03-16T15:42:13.720Z,3.63
2018-03-16T15:44:39.840Z,5.33
2018-03-16T15:47:05.956Z,5.17
2018-03-16T15:49:32.124Z,5.37
2018-03-16T15:54:51.803Z,1.03
2018-03-16T15:57:17.930Z,4.90
2018-03-16T15:59:44.043Z,0.83
2018-03-16T16:02:10.235Z,3.93
2018-03-16T16:04:36.342Z,0.40
2018-03-16T16:07:02.463Z,0.70
2018-03-16T16:09:28.651Z,1.77
2018-03-16T16:11:54.781Z,1.73
2018-03-16T16:14:20.931Z,5.93
2018-03-16T16:16:47.063Z,8.73
2018-03-16T16:19:13.268Z,5.20
2018-03-16T16:21:40.167Z,1.33
2018-03-16T16:24:06.304Z,4.57
2018-03-16T16:26:32.438Z,5.83
2018-03-16T16:28:58.614Z,4.37
2018-03-16T16:31:25.479Z,2.13
2018-03-16T16:33:51.670Z,4.30
2018-03-16T16:36:17.781Z,6.90
2018-03-16T16:38:43.967Z,1.93
2018-03-16T16:41:10.103Z,2.60
2018-03-16T16:43:36.224Z,2.57
2018-03-16T16:46:03.131Z,2.47
2018-03-16T16:48:29.247Z,3.10
2018-03-16T16:50:55.378Z,3.57
2018-03-16T16:53:21.519Z,3.30
2018-03-16T16:55:47.652Z,6.03
2018-03-16T16:58:13.781Z,2.57
2018-03-16T17:00:39.962Z,2.67
2018-03-16T17:03:06.845Z,4.27
2018-03-16T17:05:32.974Z,5.27
2018-03-16T17:07:59.118Z,2.37
2018-03-16T17:10:25.227Z,2.00
2018-03-16T17:12:51.379Z,2.50
2018-03-16T17:15:17.497Z,2.23
2018-03-16T17:17:43.632Z,3.07
2018-03-16T17:20:09.775Z,3.33
2018-03-16T17:22:35.898Z,1.13
2018-03-16T17:25:02.091Z,5.07
2018-03-16T17:27:28.999Z,3.33
2018-03-16T17:29:55.128Z,2.67
2018-03-16T17:32:24.244Z,1.10
2018-03-16T17:34:47.466Z,11.20
2018-03-16T17:37:13.587Z,3.37
2018-03-16T17:39:39.775Z,3.93
2018-03-16T17:42:05.886Z,3.40
2018-03-16T17:44:32.050Z,6.97
2018-03-16T17:46:58.928Z,5.13
2018-03-16T17:49:25.062Z,5.63
2018-03-16T17:51:51.247Z,7.63
2018-03-16T17:54:17.358Z,6.40
2018-03-16T17:56:43.487Z,6.03
2018-03-16T17:59:09.627Z,4.43
2018-03-16T18:01:35.747Z,6.53
2018-03-16T18:04:01.967Z,4.30
2018-03-16T18:06:28.116Z,4.43
2018-03-16T18:08:54.248Z,5.70
2018-03-16T18:11:20.454Z,6.07
2018-03-16T18:13:46.614Z,4.10
2018-03-16T18:16:12.760Z,5.23
2018-03-16T18:18:38.903Z,3.53
2018-03-16T18:21:05.013Z,5.47
2018-03-16T18:23:31.167Z,3.67
2018-03-16T18:25:57.315Z,2.40
2018-03-16T18:28:24.187Z,4.33
2018-03-16T18:30:50.370Z,2.63
2018-03-16T18:33:16.531Z,3.00
2018-03-16T18:35:43.395Z,4.90
2018-03-16T18:38:09.555Z,4.90
2018-03-16T18:40:35.702Z,2.90
2018-03-16T18:43:01.868Z,4.30
2018-03-16T18:45:28.737Z,5.43
2018-03-16T18:47:54.850Z,5.17
2018-03-16T18:50:21.766Z,7.50
2018-03-16T18:52:47.910Z,10.37
2018-03-16T18:55:14.026Z,12.80
2018-03-16T18:57:40.236Z,11.27
2018-03-16T19:00:06.364Z,9.33
2018-03-16T19:02:32.491Z,12.27
2018-03-16T19:04:58.692Z,12.17
2018-03-16T19:07:25.560Z,13.40
2018-03-16T19:09:51.747Z,10.80
2018-03-16T19:12:17.903Z,12.40
2018-03-16T19:14:44.811Z,16.55
2018-03-16T19:17:10.960Z,9.60
2018-03-16T19:19:44.223Z,11.37
2018-03-16T19:22:10.420Z,10.13
2018-03-16T19:24:36.539Z,9.67
2018-03-16T19:27:03.416Z,7.87
2018-03-16T19:29:29.567Z,8.13
2018-03-16T19:32:02.713Z,6.93
2018-03-16T19:34:29.637Z,6.87
2018-03-16T19:36:55.759Z,6.57
2018-03-16T19:39:21.909Z,6.43
2018-03-16T19:41:48.094Z,7.70
2018-03-16T19:44:14.343Z,5.17
2018-03-16T19:46:40.532Z,5.70
2018-03-16T19:49:07.397Z,5.70
2018-03-16T19:51:33.549Z,4.07
2018-03-16T19:53:59.691Z,6.10
2018-03-16T19:56:25.869Z,6.07
2018-03-16T19:58:52.948Z,4.63
2018-03-16T20:01:19.155Z,4.37
2018-03-16T20:03:46.047Z,5.93
2018-03-16T20:06:12.213Z,4.03
2018-03-16T20:08:38.322Z,4.93
2018-03-16T20:11:04.452Z,4.40
2018-03-16T20:13:30.606Z,7.23
2018-03-16T20:15:56.739Z,6.33
2018-03-16T20:18:22.912Z,4.23
2018-03-16T20:20:49.055Z,21.00
2018-03-16T20:23:15.258Z,9.80
2018-03-16T20:25:42.180Z,9.33
2018-03-16T20:28:08.331Z,7.73
2018-03-16T20:30:35.464Z,6.77
2018-03-16T20:33:01.608Z,11.47
2018-03-16T20:35:27.751Z,7.43
2018-03-16T20:37:54.700Z,6.40
2018-03-16T20:40:21.588Z,6.30
2018-03-16T20:42:47.736Z,6.87
2018-03-16T20:45:13.895Z,4.80
2018-03-16T20:47:40.052Z,4.80
2018-03-16T20:50:06.931Z,4.70
2018-03-16T20:52:33.115Z,5.07
2018-03-16T20:54:59.240Z,5.43
2018-03-16T20:57:25.370Z,5.07
2018-03-16T20:59:51.558Z,6.00
2018-03-16T21:02:17.683Z,5.10
2018-03-16T21:04:43.867Z,3.77
2018-03-16T21:07:10.050Z,4.30
2018-03-16T21:09:36.203Z,4.03
2018-03-16T21:12:02.408Z,3.77
2018-03-16T21:14:28.558Z,1.77
2018-03-16T21:16:54.704Z,5.27
2018-03-16T21:19:20.850Z,4.70
2018-03-16T21:21:46.998Z,3.33
2018-03-16T21:24:13.196Z,3.80
2018-03-16T21:26:39.342Z,2.80
2018-03-16T21:29:05.463Z,3.03
2018-03-16T21:31:31.614Z,2.30
2018-03-16T21:33:58.682Z,5.90
2018-03-16T21:36:24.819Z,4.20
2018-03-16T21:38:51.724Z,2.23
2018-03-16T21:41:17.963Z,3.80
2018-03-16T21:43:44.099Z,2.90
2018-03-16T21:46:10.259Z,4.43
2018-03-16T21:48:36.403Z,4.10
2018-03-16T21:51:03.298Z,2.80
2018-03-16T21:53:29.411Z,4.57
2018-03-16T21:55:55.544Z,2.27
2018-03-16T21:58:21.727Z,2.30
2018-03-16T22:00:47.852Z,2.17
2018-03-16T22:03:13.969Z,2.73
2018-03-16T22:05:40.111Z,2.83
2018-03-16T22:08:06.246Z,1.30
2018-03-16T22:10:32.376Z,2.27
2018-03-16T22:12:58.567Z,2.03
2018-03-16T22:15:24.709Z,2.30
2018-03-16T22:17:51.474Z,1.63
2018-03-16T22:20:17.658Z,0.90
2018-03-16T22:22:43.796Z,3.07
2018-03-16T22:25:09.983Z,1.00
2018-03-16T22:27:36.098Z,9.00
2018-03-16T22:30:02.276Z,1.33
2018-03-16T22:32:29.177Z,1.23
2018-03-16T22:34:55.298Z,1.33
2018-03-16T22:37:21.455Z,2.43
2018-03-16T22:39:47.594Z,1.83
2018-03-16T22:42:13.725Z,1.57
2018-03-16T22:44:39.894Z,1.53
2018-03-16T22:47:06.041Z,2.63
2018-03-16T22:49:32.226Z,1.93
2018-03-16T22:51:58.349Z,1.27
2018-03-16T22:54:24.480Z,1.73
2018-03-16T22:56:50.695Z,0.87
2018-03-16T22:59:16.845Z,1.33
2018-03-16T23:01:44.459Z,0.80
2018-03-16T23:04:10.591Z,1.30
2018-03-16T23:06:36.732Z,0.80
2018-03-16T23:09:02.905Z,0.70
2018-03-16T23:11:29.091Z,1.30
2018-03-16T23:13:55.247Z,2.50
2018-03-16T23:16:21.379Z,1.40
2018-03-16T23:18:47.535Z,1.07
2018-03-16T23:21:13.660Z,0.87
2018-03-16T23:23:39.818Z,1.13
2018-03-16T23:26:06.679Z,0.97
2018-03-16T23:28:33.571Z,2.23
2018-03-16T23:30:59.724Z,0.87
2018-03-16T23:33:25.842Z,2.10
2018-03-16T23:35:52.045Z,1.73
2018-03-16T23:38:18.162Z,2.00
2018-03-16T23:40:44.312Z,0.70
2018-03-16T23:43:10.454Z,1.33
2018-03-16T23:45:36.570Z,0.73
2018-03-16T23:48:02.720Z,0.67
2018-03-16T23:50:28.848Z,0.97
2018-03-16T23:52:55.026Z,2.50
2018-03-16T23:55:21.147Z,1.27
2018-03-16T23:57:47.272Z,1.17
